createdAt,value
2023-09-08T00:00:53.950Z,79.45
2023-09-08T00:03:22.964Z,79.10
2023-09-08T00:05:50.144Z,79.37
2023-09-08T00:08:18.947Z,79.47
2023-09-08T00:10:46.059Z,79.13
2023-09-08T00:13:13.144Z,79.42
2023-09-08T00:15:40.152Z,80.41
2023-09-08T00:18:07.329Z,80.10
2023-09-08T00:20:34.319Z,80.56
2023-09-08T00:23:01.244Z,80.14
2023-09-08T00:25:29.790Z,79.73
2023-09-08T00:27:56.745Z,79.53
2023-09-08T00:30:23.643Z,79.57
2023-09-08T00:32:50.704Z,79.66
2023-09-08T00:35:18.306Z,80.42
2023-09-08T00:37:45.314Z,80.23
2023-09-08T00:40:12.361Z,79.21
2023-09-08T00:42:40.894Z,79.71
2023-09-08T00:45:08.281Z,80.19
2023-09-08T00:47:36.224Z,80.27
2023-09-08T00:50:04.415Z,80.95
2023-09-08T00:52:33.603Z,80.74
2023-09-08T00:55:00.921Z,81.37
2023-09-08T00:57:28.035Z,80.97
2023-09-08T00:59:56.624Z,81.68
2023-09-08T01:02:23.820Z,81.58
2023-09-08T01:04:51.550Z,80.94
2023-09-08T01:07:21.696Z,80.76
2023-09-08T01:09:49.253Z,80.59
2023-09-08T01:12:17.130Z,80.34
2023-09-08T01:14:44.268Z,79.55
2023-09-08T01:17:13.667Z,78.99
2023-09-08T01:19:42.427Z,79.80
2023-09-08T01:22:31.163Z,79.63
2023-09-08T01:25:20.881Z,79.87
2023-09-08T01:27:50.908Z,80.24
2023-09-08T01:30:19.623Z,80.03
2023-09-08T01:32:49.460Z,79.70
2023-09-08T01:35:17.032Z,79.94
2023-09-08T01:37:47.210Z,79.24
2023-09-08T01:40:16.315Z,79.74
2023-09-08T01:42:43.841Z,79.12
2023-09-08T01:45:10.824Z,80.49
2023-09-08T01:47:38.579Z,80.14
2023-09-08T01:50:06.765Z,80.46
2023-09-08T01:52:33.770Z,80.88
2023-09-08T01:55:02.340Z,80.78
2023-09-08T01:57:31.109Z,80.41
2023-09-08T01:59:58.077Z,80.62
2023-09-08T02:02:26.039Z,81.29
2023-09-08T02:04:53.095Z,81.44
2023-09-08T02:07:20.265Z,80.76
2023-09-08T02:09:49.927Z,80.72
2023-09-08T02:12:17.164Z,81.13
2023-09-08T02:14:46.009Z,80.76
2023-09-08T02:17:14.293Z,80.73
2023-09-08T02:19:41.508Z,80.01
2023-09-08T02:22:10.339Z,80.95
2023-09-08T02:24:37.376Z,79.86
2023-09-08T02:27:05.002Z,79.81
2023-09-08T02:29:32.367Z,80.02
2023-09-08T02:32:00.673Z,80.48
2023-09-08T02:34:27.621Z,79.98
2023-09-08T02:36:55.160Z,80.21
2023-09-08T02:39:28.072Z,80.24
2023-09-08T02:41:56.031Z,79.79
2023-09-08T02:44:26.607Z,79.87
2023-09-08T02:46:53.908Z,80.45
2023-09-08T02:49:23.070Z,79.72
2023-09-08T02:51:50.035Z,80.49
2023-09-08T02:54:17.301Z,80.21
2023-09-08T02:56:44.288Z,80.60
2023-09-08T02:59:12.174Z,82.52
2023-09-08T03:01:39.192Z,81.77
2023-09-08T03:04:06.637Z,82.21
2023-09-08T03:06:36.209Z,82.91
2023-09-08T03:09:03.355Z,82.71
2023-09-08T03:11:30.830Z,81.45
2023-09-08T03:13:57.890Z,82.60
2023-09-08T03:16:24.862Z,82.13
2023-09-08T03:18:51.874Z,81.55
2023-09-08T03:21:18.864Z,81.94
2023-09-08T03:23:50.267Z,82.05
2023-09-08T03:26:17.457Z,80.52
2023-09-08T03:28:44.403Z,81.59
2023-09-08T03:31:11.629Z,82.32
2023-09-08T03:33:38.837Z,82.06
2023-09-08T03:36:08.366Z,81.53
2023-09-08T03:38:38.194Z,81.64
2023-09-08T03:41:07.747Z,81.97
2023-09-08T03:43:35.002Z,82.36
2023-09-08T03:46:02.766Z,82.40
2023-09-08T03:48:29.846Z,81.78
2023-09-08T03:50:56.958Z,81.74
2023-09-08T03:53:24.043Z,81.17
2023-09-08T03:55:51.663Z,81.06
2023-09-08T03:58:20.388Z,81.54
2023-09-08T04:00:49.703Z,81.01
2023-09-08T04:03:17.193Z,81.03
2023-09-08T04:05:44.528Z,81.11
2023-09-08T04:08:11.492Z,81.04
2023-09-08T04:10:38.505Z,81.26
2023-09-08T04:13:05.788Z,81.46
2023-09-08T04:15:35.229Z,81.91
2023-09-08T04:18:03.213Z,82.04
2023-09-08T04:20:30.304Z,82.16
2023-09-08T04:22:57.433Z,82.48
2023-09-08T04:25:26.105Z,84.30
2023-09-08T04:27:53.246Z,84.52
2023-09-08T04:30:20.334Z,84.32
2023-09-08T04:32:49.036Z,84.28
2023-09-08T04:35:16.175Z,84.41
2023-09-08T04:37:43.477Z,85.29
2023-09-08T04:40:11.295Z,84.99
2023-09-08T04:42:38.282Z,85.70
2023-09-08T04:45:07.183Z,85.73
2023-09-08T04:47:35.097Z,86.00
2023-09-08T04:50:03.600Z,84.97
2023-09-08T04:52:30.787Z,85.10
2023-09-08T04:54:57.759Z,85.72
2023-09-08T04:57:25.534Z,86.18
2023-09-08T04:59:56.934Z,86.87
2023-09-08T05:02:24.397Z,85.23
2023-09-08T05:04:51.842Z,85.60
2023-09-08T05:07:20.499Z,84.91
2023-09-08T05:09:48.613Z,84.16
2023-09-08T05:12:15.637Z,83.60
2023-09-08T05:14:43.051Z,83.19
2023-09-08T05:17:10.450Z,84.02
2023-09-08T05:19:37.538Z,85.31
2023-09-08T05:22:06.684Z,83.57
2023-09-08T05:24:35.425Z,82.76
2023-09-08T05:27:02.432Z,82.81
2023-09-08T05:29:29.349Z,83.70
2023-09-08T05:31:56.557Z,82.87
2023-09-08T05:34:24.425Z,82.16
2023-09-08T05:36:51.881Z,80.94
2023-09-08T05:39:20.348Z,79.88
2023-09-08T05:41:49.282Z,79.21
2023-09-08T05:44:16.687Z,79.80
2023-09-08T05:46:43.884Z,79.27
2023-09-08T05:49:11.268Z,78.57
2023-09-08T05:51:38.415Z,78.01
2023-09-08T05:54:06.707Z,76.76
2023-09-08T05:56:35.149Z,76.64
2023-09-08T05:59:03.846Z,77.55
2023-09-08T06:01:32.340Z,76.47
2023-09-08T06:04:00.457Z,76.63
2023-09-08T06:06:30.222Z,76.67
2023-09-08T06:08:57.248Z,75.53
2023-09-08T06:11:24.662Z,74.15
2023-09-08T06:13:51.663Z,71.45
2023-09-08T06:16:20.117Z,70.82
2023-09-08T06:18:48.082Z,69.57
2023-09-08T06:21:18.686Z,69.37
2023-09-08T06:23:45.927Z,68.62
2023-09-08T06:26:14.633Z,67.55
2023-09-08T06:28:44.402Z,65.84
2023-09-08T06:31:11.432Z,66.25
2023-09-08T06:33:42.080Z,63.48
2023-09-08T06:36:09.121Z,63.39
2023-09-08T06:38:36.482Z,62.61
2023-09-08T06:41:10.642Z,62.28
2023-09-08T06:43:37.786Z,62.31
2023-09-08T06:46:10.099Z,60.74
2023-09-08T06:48:38.322Z,60.79
2023-09-08T06:51:07.465Z,59.77
2023-09-08T06:53:35.290Z,60.66
2023-09-08T06:56:02.356Z,59.24
2023-09-08T06:58:30.422Z,58.25
2023-09-08T07:00:57.876Z,57.02
2023-09-08T07:03:27.868Z,57.70
2023-09-08T07:05:56.063Z,57.27
2023-09-08T07:08:25.757Z,56.40
2023-09-08T07:10:54.606Z,56.46
2023-09-08T07:13:21.727Z,56.78
2023-09-08T07:15:48.778Z,56.03
2023-09-08T07:18:16.105Z,56.10
2023-09-08T07:20:47.901Z,55.60
2023-09-08T07:23:15.851Z,53.98
2023-09-08T07:25:47.820Z,53.98
2023-09-08T07:28:15.754Z,54.86
2023-09-08T07:30:43.702Z,55.55
2023-09-08T07:33:11.693Z,54.25
2023-09-08T07:35:40.324Z,56.15
2023-09-08T07:38:08.168Z,54.26
2023-09-08T07:40:35.722Z,56.93
2023-09-08T07:43:04.567Z,56.82
2023-09-08T07:45:31.654Z,55.59
2023-09-08T07:47:58.637Z,57.24
2023-09-08T07:50:28.099Z,57.32
2023-09-08T07:52:57.388Z,55.23
2023-09-08T07:55:28.375Z,56.00
2023-09-08T07:57:56.279Z,55.67
2023-09-08T08:00:24.908Z,54.23
2023-09-08T08:02:55.525Z,54.88
2023-09-08T08:05:23.035Z,57.05
2023-09-08T08:07:50.065Z,57.18
2023-09-08T08:10:17.079Z,55.55
2023-09-08T08:12:44.831Z,56.32
2023-09-08T08:15:12.274Z,57.14
2023-09-08T08:17:41.288Z,56.40
2023-09-08T08:20:10.872Z,56.04
2023-09-08T08:22:38.206Z,55.17
2023-09-08T08:25:06.251Z,55.47
2023-09-08T08:27:33.411Z,55.71
2023-09-08T08:30:02.510Z,56.15
2023-09-08T08:32:30.135Z,55.80
2023-09-08T08:34:58.580Z,55.47
2023-09-08T08:37:25.756Z,54.56
2023-09-08T08:39:53.853Z,55.75
2023-09-08T08:42:23.815Z,55.17
2023-09-08T08:44:51.651Z,55.00
2023-09-08T08:47:20.358Z,55.30
2023-09-08T08:49:50.036Z,55.09
2023-09-08T08:52:19.630Z,54.77
2023-09-08T08:54:47.395Z,54.08
2023-09-08T08:57:15.296Z,53.69
2023-09-08T08:59:45.234Z,53.09
2023-09-08T09:02:13.261Z,54.40
2023-09-08T09:04:40.727Z,54.58
2023-09-08T09:07:08.890Z,53.69
2023-09-08T09:09:37.159Z,53.43
2023-09-08T09:12:04.878Z,52.29
2023-09-08T09:14:34.546Z,51.79
2023-09-08T09:17:02.602Z,53.37
2023-09-08T09:19:31.646Z,53.44
2023-09-08T09:22:00.281Z,51.88
2023-09-08T09:24:33.936Z,51.34
2023-09-08T09:27:02.859Z,51.56
2023-09-08T09:29:30.638Z,51.30
2023-09-08T09:31:59.124Z,52.81
2023-09-08T09:34:26.356Z,50.42
2023-09-08T09:36:53.488Z,49.86
2023-09-08T09:39:21.773Z,49.42
2023-09-08T09:41:49.434Z,50.99
2023-09-08T09:44:18.001Z,49.69
2023-09-08T09:46:46.973Z,48.10
2023-09-08T09:49:15.161Z,48.38
2023-09-08T09:51:44.651Z,48.25
2023-09-08T09:54:12.637Z,47.62
2023-09-08T09:56:40.889Z,47.48
2023-09-08T09:59:10.442Z,45.76
2023-09-08T10:01:39.719Z,46.55
2023-09-08T10:04:07.533Z,46.38
2023-09-08T10:06:36.692Z,46.13
2023-09-08T10:09:06.127Z,45.87
2023-09-08T10:11:40.486Z,42.80
2023-09-08T10:14:12.359Z,43.42
2023-09-08T10:16:44.436Z,42.28
2023-09-08T10:19:12.497Z,42.78
2023-09-08T10:21:42.970Z,39.79
2023-09-08T10:24:16.539Z,37.85
2023-09-08T10:26:48.796Z,38.75
2023-09-08T10:29:16.052Z,39.22
2023-09-08T10:31:45.453Z,36.99
2023-09-08T10:34:12.974Z,37.27
2023-09-08T10:36:40.341Z,38.86
2023-09-08T10:39:32.914Z,40.24
2023-09-08T10:42:27.501Z,40.91
2023-09-08T10:44:59.599Z,38.72
2023-09-08T10:47:35.402Z,37.20
2023-09-08T10:50:02.733Z,36.68
2023-09-08T10:52:29.963Z,39.15
2023-09-08T10:54:57.705Z,39.75
2023-09-08T10:57:26.468Z,38.47
2023-09-08T10:59:57.092Z,38.14
2023-09-08T11:02:36.812Z,38.17
2023-09-08T11:05:06.065Z,38.50
2023-09-08T11:07:36.106Z,39.36
2023-09-08T11:10:03.135Z,38.26
2023-09-08T11:12:30.252Z,38.73
2023-09-08T11:14:57.249Z,38.36
2023-09-08T11:17:27.031Z,38.17
2023-09-08T11:19:55.767Z,38.43
2023-09-08T11:22:27.441Z,38.22
2023-09-08T11:24:58.127Z,36.22
2023-09-08T11:27:25.285Z,37.60
2023-09-08T11:29:52.266Z,37.70
2023-09-08T11:32:19.394Z,38.44
2023-09-08T11:34:46.360Z,37.95
2023-09-08T11:37:17.235Z,37.67
2023-09-08T11:39:45.472Z,36.81
2023-09-08T11:42:14.295Z,36.95
2023-09-08T11:44:42.353Z,39.17
2023-09-08T11:47:10.795Z,37.77
2023-09-08T11:49:38.627Z,36.46
2023-09-08T11:52:06.572Z,37.17
2023-09-08T11:54:36.330Z,36.82
2023-09-08T11:57:05.489Z,36.57
2023-09-08T11:59:34.292Z,37.58
2023-09-08T12:02:02.099Z,39.39
2023-09-08T12:04:29.047Z,37.47
2023-09-08T12:06:57.257Z,37.70
2023-09-08T12:09:24.918Z,36.93
2023-09-08T12:11:53.320Z,37.23
2023-09-08T12:14:20.194Z,39.19
2023-09-08T12:16:47.433Z,37.28
2023-09-08T12:19:31.637Z,37.83
2023-09-08T12:22:01.217Z,36.60
2023-09-08T12:25:00.143Z,36.67
2023-09-08T12:27:28.600Z,36.09
2023-09-08T12:29:56.679Z,35.41
2023-09-08T12:32:24.638Z,34.58
2023-09-08T12:34:52.230Z,35.75
2023-09-08T12:37:22.192Z,35.43
2023-09-08T12:39:49.409Z,34.43
2023-09-08T12:42:16.396Z,34.73
2023-09-08T12:44:45.100Z,34.55
2023-09-08T12:47:15.786Z,35.10
2023-09-08T12:49:42.574Z,33.80
2023-09-08T12:52:10.602Z,36.28
2023-09-08T12:54:37.646Z,33.92
2023-09-08T12:57:06.902Z,31.56
2023-09-08T12:59:34.182Z,31.31
2023-09-08T13:02:02.439Z,32.83
2023-09-08T13:04:29.372Z,31.07
2023-09-08T13:06:56.311Z,31.11
2023-09-08T13:09:26.217Z,30.12
2023-09-08T13:11:53.186Z,28.42
2023-09-08T13:14:20.090Z,28.99
2023-09-08T13:16:47.020Z,29.84
2023-09-08T13:19:15.407Z,29.78
2023-09-08T13:21:42.326Z,30.81
2023-09-08T13:24:10.166Z,31.44
2023-09-08T13:26:38.722Z,32.29
2023-09-08T13:29:06.909Z,30.71
2023-09-08T13:31:34.135Z,30.58
2023-09-08T13:34:01.278Z,31.68
2023-09-08T13:36:29.607Z,31.53
2023-09-08T13:38:56.735Z,31.79
2023-09-08T13:41:24.948Z,31.87
2023-09-08T13:43:51.860Z,31.42
2023-09-08T13:46:18.850Z,33.17
2023-09-08T13:48:46.495Z,33.33
2023-09-08T13:51:14.506Z,31.87
2023-09-08T13:53:47.351Z,32.52
2023-09-08T13:56:15.844Z,33.04
2023-09-08T13:58:50.099Z,32.85
2023-09-08T14:01:20.146Z,33.00
2023-09-08T14:06:21.243Z,33.93
2023-09-08T14:11:34.976Z,34.49
2023-09-08T14:14:11.069Z,34.10
2023-09-08T14:16:38.188Z,34.38
2023-09-08T14:19:06.242Z,34.08
2023-09-08T14:21:33.707Z,33.68
2023-09-08T14:24:02.175Z,35.48
2023-09-08T14:26:29.119Z,34.21
2023-09-08T14:28:56.129Z,33.71
2023-09-08T14:31:23.209Z,33.70
2023-09-08T14:33:50.364Z,34.05
2023-09-08T14:36:20.836Z,35.06
2023-09-08T14:38:48.303Z,35.77
2023-09-08T14:41:16.793Z,35.38
2023-09-08T14:43:43.868Z,35.75
2023-09-08T14:46:10.892Z,36.44
2023-09-08T14:48:37.977Z,36.35
2023-09-08T14:51:05.067Z,37.03
2023-09-08T14:53:32.847Z,36.54
2023-09-08T14:56:00.244Z,36.15
2023-09-08T14:58:33.058Z,35.82
2023-09-08T15:01:04.822Z,34.95
2023-09-08T15:03:32.866Z,35.23
2023-09-08T15:06:00.296Z,35.11
2023-09-08T15:08:27.477Z,34.81
2023-09-08T15:10:54.609Z,34.87
2023-09-08T15:13:23.807Z,34.68
2023-09-08T15:15:52.722Z,34.55
2023-09-08T15:18:23.765Z,34.42
2023-09-08T15:20:54.983Z,35.06
2023-09-08T15:23:22.472Z,33.89
2023-09-08T15:25:53.476Z,34.01
2023-09-08T15:28:21.391Z,34.75
2023-09-08T15:30:49.602Z,34.04
2023-09-08T15:33:19.027Z,35.42
2023-09-08T15:35:46.405Z,33.89
2023-09-08T15:38:14.081Z,33.89
2023-09-08T15:41:18.006Z,34.15
2023-09-08T15:43:48.142Z,34.06
2023-09-08T15:46:15.602Z,33.87
2023-09-08T15:48:44.121Z,33.82
2023-09-08T15:51:11.311Z,33.19
2023-09-08T15:53:39.036Z,34.23
2023-09-08T15:56:08.156Z,33.47
2023-09-08T15:58:35.479Z,34.84
2023-09-08T16:01:02.541Z,33.93
2023-09-08T16:03:29.876Z,34.40
2023-09-08T16:05:58.440Z,34.39
2023-09-08T16:08:25.533Z,34.05
2023-09-08T16:10:53.181Z,33.98
2023-09-08T16:13:20.940Z,34.08
2023-09-08T16:15:50.874Z,33.99
2023-09-08T16:18:18.835Z,33.87
2023-09-08T16:20:45.791Z,33.78
2023-09-08T16:23:14.065Z,33.89
2023-09-08T16:25:41.120Z,34.09
2023-09-08T16:28:08.297Z,34.66
2023-09-08T16:30:36.049Z,34.29
2023-09-08T16:33:03.354Z,34.92
2023-09-08T16:35:30.963Z,34.57
2023-09-08T16:37:57.919Z,34.29
2023-09-08T16:40:26.956Z,34.70
2023-09-08T16:42:53.951Z,35.29
2023-09-08T16:45:20.930Z,35.20
2023-09-08T16:47:47.878Z,35.09
2023-09-08T16:50:14.885Z,35.68
2023-09-08T16:52:41.913Z,36.36
2023-09-08T16:55:12.449Z,36.68
2023-09-08T16:57:41.223Z,36.97
2023-09-08T17:00:09.434Z,36.81
2023-09-08T17:02:36.813Z,38.06
2023-09-08T17:05:04.659Z,37.07
2023-09-08T17:07:31.665Z,37.41
2023-09-08T17:09:58.986Z,36.79
2023-09-08T17:12:27.416Z,37.92
2023-09-08T17:14:56.005Z,37.62
2023-09-08T17:17:23.246Z,37.40
2023-09-08T17:19:50.394Z,37.89
2023-09-08T17:22:17.573Z,37.94
2023-09-08T17:24:44.650Z,38.53
2023-09-08T17:27:11.648Z,38.09
2023-09-08T17:29:38.555Z,38.33
2023-09-08T17:32:07.165Z,38.51
2023-09-08T17:34:34.352Z,38.20
2023-09-08T17:37:01.535Z,38.45
2023-09-08T17:39:28.690Z,38.65
2023-09-08T17:41:55.777Z,38.81
2023-09-08T17:44:22.778Z,39.30
2023-09-08T17:46:50.465Z,39.68
2023-09-08T17:49:18.905Z,40.57
2023-09-08T17:51:45.834Z,40.43
2023-09-08T17:54:13.146Z,41.14
2023-09-08T17:56:41.119Z,42.24
2023-09-08T17:59:08.277Z,42.71
2023-09-08T18:01:38.057Z,43.06
2023-09-08T18:04:07.061Z,43.72
2023-09-08T18:06:35.668Z,44.28
2023-09-08T18:09:02.751Z,45.12
2023-09-08T18:11:29.904Z,45.61
2023-09-08T18:13:57.258Z,46.10
2023-09-08T18:16:24.659Z,46.91
2023-09-08T18:18:51.754Z,47.47
2023-09-08T18:21:18.650Z,48.39
2023-09-08T18:23:48.044Z,48.38
2023-09-08T18:26:17.498Z,48.88
2023-09-08T18:28:44.980Z,49.50
2023-09-08T18:31:12.699Z,50.14
2023-09-08T18:33:40.684Z,51.14
2023-09-08T18:36:08.141Z,52.08
2023-09-08T18:38:35.448Z,52.70
2023-09-08T18:41:03.916Z,54.02
2023-09-08T18:43:31.084Z,53.97
2023-09-08T18:45:58.022Z,54.41
2023-09-08T18:48:25.076Z,54.50
2023-09-08T18:50:52.399Z,54.93
2023-09-08T18:53:19.468Z,54.84
2023-09-08T18:55:47.016Z,54.93
2023-09-08T18:58:16.179Z,55.26
2023-09-08T19:00:44.863Z,55.98
2023-09-08T19:03:12.106Z,55.97
2023-09-08T19:05:41.151Z,56.63
2023-09-08T19:08:08.267Z,56.82
2023-09-08T19:10:35.417Z,57.17
2023-09-08T19:13:02.415Z,57.33
2023-09-08T19:15:30.857Z,58.39
2023-09-08T19:17:57.890Z,59.42
2023-09-08T19:20:25.008Z,59.20
2023-09-08T19:22:51.954Z,59.35
2023-09-08T19:25:18.961Z,59.23
2023-09-08T19:27:45.951Z,59.48
2023-09-08T19:30:13.595Z,59.19
2023-09-08T19:32:42.480Z,58.79
2023-09-08T19:35:10.047Z,58.83
2023-09-08T19:37:36.926Z,58.56
2023-09-08T19:40:04.819Z,58.50
2023-09-08T19:42:31.841Z,58.23
2023-09-08T19:44:58.765Z,58.61
2023-09-08T19:47:25.803Z,59.39
2023-09-08T19:49:54.096Z,60.36
2023-09-08T19:52:20.951Z,61.54
2023-09-08T19:54:48.351Z,62.95
2023-09-08T19:57:15.253Z,63.59
2023-09-08T19:59:42.440Z,63.87
2023-09-08T20:02:10.456Z,63.89
2023-09-08T20:04:37.682Z,62.83
2023-09-08T20:07:06.070Z,62.32
2023-09-08T20:09:33.239Z,62.66
2023-09-08T20:12:00.172Z,63.14
2023-09-08T20:14:29.855Z,63.22
2023-09-08T20:16:56.780Z,63.10
2023-09-08T20:19:23.896Z,62.64
2023-09-08T20:21:50.810Z,62.93
2023-09-08T20:24:19.492Z,62.88
2023-09-08T20:26:46.573Z,63.81
2023-09-08T20:29:14.005Z,64.34
2023-09-08T20:31:41.026Z,64.76
2023-09-08T20:34:07.943Z,64.11
2023-09-08T20:36:34.893Z,64.08
2023-09-08T20:39:01.840Z,63.14
2023-09-08T20:41:30.114Z,64.03
2023-09-08T20:43:57.047Z,65.02
2023-09-08T20:46:24.008Z,64.87
2023-09-08T20:48:51.427Z,65.19
2023-09-08T20:51:24.157Z,66.73
2023-09-08T20:53:51.109Z,67.20
2023-09-08T20:56:18.579Z,67.27
2023-09-08T20:58:47.165Z,67.71
2023-09-08T21:01:14.211Z,68.21
2023-09-08T21:03:41.354Z,68.39
2023-09-08T21:06:08.601Z,68.26
2023-09-08T21:08:35.566Z,68.54
2023-09-08T21:11:03.474Z,69.04
2023-09-08T21:13:30.730Z,69.12
2023-09-08T21:15:59.588Z,69.16
2023-09-08T21:18:26.597Z,69.06
2023-09-08T21:20:53.521Z,68.43
2023-09-08T21:23:20.553Z,67.64
2023-09-08T21:25:50.746Z,67.81
2023-09-08T21:28:17.799Z,68.36
2023-09-08T21:30:45.442Z,68.25
2023-09-08T21:33:14.390Z,68.39
2023-09-08T21:35:41.600Z,67.47
2023-09-08T21:38:08.525Z,68.70
2023-09-08T21:40:39.148Z,69.23
2023-09-08T21:43:06.160Z,69.79
2023-09-08T21:45:33.091Z,69.77
2023-09-08T21:48:00.000Z,70.14
2023-09-08T21:50:28.332Z,71.17
2023-09-08T21:52:55.287Z,71.78
2023-09-08T21:55:22.804Z,71.98
2023-09-08T21:57:50.047Z,71.13
2023-09-08T22:00:18.715Z,70.71
2023-09-08T22:02:45.815Z,70.43
2023-09-08T22:05:13.221Z,70.47
2023-09-08T22:07:41.726Z,69.62
2023-09-08T22:10:09.418Z,70.42
2023-09-08T22:12:36.461Z,70.32
2023-09-08T22:15:04.432Z,71.00
2023-09-08T22:17:33.059Z,71.89
2023-09-08T22:20:00.056Z,71.57
2023-09-08T22:22:26.937Z,71.96
2023-09-08T22:24:55.253Z,72.42
2023-09-08T22:27:22.374Z,73.07
2023-09-08T22:29:49.181Z,73.89
2023-09-08T22:32:16.111Z,75.85
2023-09-08T22:34:42.996Z,76.36
2023-09-08T22:37:10.193Z,76.02
2023-09-08T22:39:37.001Z,75.59
2023-09-08T22:42:05.809Z,73.91
2023-09-08T22:44:32.846Z,74.21
2023-09-08T22:46:59.936Z,73.65
2023-09-08T22:49:27.477Z,74.72
2023-09-08T22:51:54.957Z,75.72
2023-09-08T22:54:22.123Z,75.58
2023-09-08T22:56:49.082Z,75.91
2023-09-08T22:59:17.520Z,75.68
2023-09-08T23:01:44.444Z,75.21
2023-09-08T23:04:11.383Z,75.47
2023-09-08T23:06:38.314Z,74.55
2023-09-08T23:09:05.231Z,73.52
2023-09-08T23:11:32.438Z,72.98
2023-09-08T23:13:59.594Z,72.91
2023-09-08T23:16:28.058Z,72.45
2023-09-08T23:18:55.929Z,73.25
2023-09-08T23:21:22.904Z,73.35
2023-09-08T23:23:55.133Z,72.92
2023-09-08T23:26:24.938Z,73.23
2023-09-08T23:28:55.971Z,73.03
2023-09-08T23:31:23.206Z,73.69
2023-09-08T23:33:52.032Z,74.07
2023-09-08T23:36:18.938Z,74.19
2023-09-08T23:38:45.812Z,75.04
2023-09-08T23:41:12.854Z,74.35
2023-09-08T23:43:40.158Z,73.69
2023-09-08T23:46:07.457Z,73.51
2023-09-08T23:48:34.391Z,73.30
2023-09-08T23:51:02.757Z,73.71
2023-09-08T23:53:30.062Z,73.23
2023-09-08T23:55:57.177Z,73.68
2023-09-08T23:58:24.163Z,74.11
